Volin, SD (57072)

2:13 PM CDT on September 01, 2014 (GMT -0500)
Volin | Change Station
CLOSE
Current Station
Personal Weather Station
Location: Volin, SD
Elevation: 1240 ft
Nearby Weather Stations

Elev 1240 ft 42.98 °N, 97.26 °W | Updated 8 seconds ago

Partly Cloudy
Partly Cloudy
78.4 °F
Feels Like 81 °F
N
6.0
Wind Variable Wind from WSW
Gusts 13.0 mph

Today
High -- | Low -- °F
--% Chance of Precip.
Yesterday
High -- | Low -- °F
Precip. -- in
6:53 AM 8:03 PM
Waxing Crescent, 43% visible
Pressure 29.85 in
Visibility 10.0 miles
Clouds Scattered Clouds 3600 ft
Scattered Clouds 4300 ft
Heat Index 81 °F
Dew Point 68 °F
Humidity 71%
Rainfall 0.00 in
Snow Depth Not available.
UV 7 out of 12
Pollen 7.80 out of 12
Air Quality Not available.
Flu Activity Not available.
METAR KYKN 011855Z AUTO 26009G14KT 10SM SCT036 SCT043 24/16 A2985 RMK AO1

More Conditions Fewer Conditions

Pressure 29.85 in
Visibility 10.0 miles
Clouds Scattered Clouds 3600 ft
Scattered Clouds 4300 ft
Heat Index 81 °F
Dew Point 68 °F
Humidity 71%
Rainfall 0.00 in
Snow Depth Not available.
UV 7 out of 12
Pollen 7.80 out of 12
Air Quality Not available.
Flu Activity Not available.
METAR KYKN 011855Z AUTO 26009G14KT 10SM SCT036 SCT043 24/16 A2985 RMK AO1

More Conditions Fewer Conditions

10-Day Weather Forecast

Almanac

Astronomy

Sep. 01, 2014 Rise Set
Actual Time 6:53 AM CDT 8:03 PM CDT
Civil Twilight 6:24 AM CDT 8:32 PM CDT
Nautical Twilight 5:49 AM CDT 9:07 PM CDT
Astronomical Twilight 5:12 AM CDT 9:44 PM CDT
Moon 1:50 PM CDT 11:55 PM CDT
Length of Visible Light 14h 08m
Length of Day
13h 10m
Tomorrow will be 2m 48s shorter.
Waxing Crescent, 43% of the Moon is Illuminated
Today
Waxing Crescent
Sep 2
First Quarter
Sep 8
Full
Sep 15
Last Quarter
Sep 24
New

Today's Extremes

State Highs State Lows

Community

WunderPhotos

Upload Photos

1,749,373 photos uploaded!

WunderBlogs® & News

Nearby

Snow Depth

Station Depth Elevation
Blind Park 0 in 6890 ft

Earthquake Activity

City Distance Mag. Time & Date
No recent earthquake activity has been reported nearby.
Minimum magnitude displayed is 2.5.

Coastal Water Temperatures

Place Temperature
No Stations Reporting

Nearby Weather Stations